createdAt,value
2022-12-14T00:00:16.021Z,358
2022-12-14T00:01:14.496Z,406
2022-12-14T00:02:14.103Z,402
2022-12-14T00:03:14.360Z,384
2022-12-14T00:04:14.743Z,388
2022-12-14T00:05:14.166Z,399
2022-12-14T00:06:14.722Z,394
2022-12-14T00:07:13.667Z,402
2022-12-14T00:09:14.242Z,395
2022-12-14T00:10:14.436Z,403
2022-12-14T00:11:14.240Z,405
2022-12-14T00:12:14.292Z,400
2022-12-14T00:13:14.122Z,403
2022-12-14T00:14:13.966Z,402
2022-12-14T00:15:14.670Z,399
2022-12-14T00:16:14.636Z,406
2022-12-14T00:17:14.630Z,404
2022-12-14T00:18:16.779Z,401
2022-12-14T00:19:13.844Z,394
2022-12-14T00:20:13.668Z,397
2022-12-14T00:21:13.841Z,387
2022-12-14T00:23:13.767Z,394
2022-12-14T00:24:14.193Z,387
2022-12-14T00:25:14.235Z,403
2022-12-14T00:26:13.914Z,406
2022-12-14T00:27:14.091Z,400
2022-12-14T00:28:13.751Z,389
2022-12-14T00:29:13.414Z,382
2022-12-14T00:30:14.796Z,386
2022-12-14T00:31:13.618Z,396
2022-12-14T00:32:14.391Z,397
2022-12-14T00:33:14.525Z,395
2022-12-14T00:34:14.158Z,401
2022-12-14T00:35:14.411Z,406
2022-12-14T00:37:14.932Z,410
2022-12-14T00:38:13.779Z,403
2022-12-14T00:39:14.079Z,410
2022-12-14T00:41:13.604Z,400
2022-12-14T00:42:13.916Z,397
2022-12-14T00:43:13.993Z,395
2022-12-14T00:44:14.308Z,390
2022-12-14T00:45:14.615Z,396
2022-12-14T00:46:13.725Z,393
2022-12-14T00:47:14.111Z,392
2022-12-14T00:48:13.529Z,397
2022-12-14T00:49:14.279Z,394
2022-12-14T00:50:14.149Z,389
2022-12-14T00:51:14.223Z,392
2022-12-14T00:52:13.885Z,383
2022-12-14T00:53:13.694Z,386
2022-12-14T00:54:14.165Z,395
2022-12-14T00:55:13.760Z,383
2022-12-14T00:56:13.666Z,384
2022-12-14T00:57:13.701Z,391
2022-12-14T00:58:14.625Z,396
2022-12-14T00:59:13.694Z,404
2022-12-14T01:00:15.007Z,403
2022-12-14T01:01:16.398Z,394
2022-12-14T01:02:14.883Z,392
2022-12-14T01:03:13.380Z,394
2022-12-14T01:04:14.457Z,392
2022-12-14T01:05:15.019Z,389
2022-12-14T01:06:14.830Z,394
2022-12-14T01:07:13.859Z,399
2022-12-14T01:08:14.086Z,400
2022-12-14T01:09:14.420Z,392
2022-12-14T01:10:14.592Z,386
2022-12-14T01:11:14.324Z,398
2022-12-14T01:12:13.896Z,403
2022-12-14T01:13:14.364Z,417
2022-12-14T01:14:14.001Z,395
2022-12-14T01:15:14.310Z,386
2022-12-14T01:16:13.943Z,394
2022-12-14T01:17:14.758Z,403
2022-12-14T01:19:14.126Z,397
2022-12-14T01:20:14.196Z,395
2022-12-14T01:21:15.160Z,391
2022-12-14T01:22:14.689Z,398
2022-12-14T01:23:14.661Z,402
2022-12-14T01:24:14.144Z,398
2022-12-14T01:25:13.599Z,400
2022-12-14T01:26:14.419Z,397
2022-12-14T01:27:14.275Z,394
2022-12-14T01:28:14.476Z,398
2022-12-14T01:29:14.349Z,402
2022-12-14T01:30:14.248Z,401
2022-12-14T01:31:13.856Z,391
2022-12-14T01:32:13.655Z,396
2022-12-14T01:33:13.644Z,394
2022-12-14T01:34:14.261Z,391
2022-12-14T01:35:14.455Z,383
2022-12-14T01:36:14.466Z,401
2022-12-14T01:37:13.941Z,409
2022-12-14T01:38:13.232Z,385
2022-12-14T01:40:13.824Z,382
2022-12-14T01:41:13.819Z,388
2022-12-14T01:42:13.608Z,393
2022-12-14T01:43:14.491Z,389
2022-12-14T01:44:14.307Z,396
2022-12-14T01:45:14.434Z,404
2022-12-14T01:46:13.773Z,405
2022-12-14T01:47:13.669Z,407
2022-12-14T01:48:14.286Z,401
2022-12-14T01:49:14.255Z,407
2022-12-14T01:50:14.383Z,406
2022-12-14T01:51:14.505Z,396
2022-12-14T01:52:14.157Z,397
2022-12-14T01:53:14.226Z,396
2022-12-14T01:55:14.012Z,398
2022-12-14T01:56:13.797Z,393
2022-12-14T01:57:13.745Z,398
2022-12-14T01:58:14.601Z,405
2022-12-14T01:59:14.485Z,415
2022-12-14T02:00:15.352Z,388
2022-12-14T02:01:15.002Z,409
2022-12-14T02:02:13.629Z,407
2022-12-14T02:03:13.588Z,411
2022-12-14T02:04:14.564Z,406
2022-12-14T02:05:13.986Z,396
2022-12-14T02:06:14.140Z,394
2022-12-14T02:07:14.170Z,383
2022-12-14T02:08:14.693Z,379
2022-12-14T02:09:14.447Z,386
2022-12-14T02:10:14.477Z,398
2022-12-14T02:12:13.618Z,397
2022-12-14T02:13:13.578Z,388
2022-12-14T02:14:14.502Z,392
2022-12-14T02:15:14.762Z,395
2022-12-14T02:17:14.273Z,390
2022-12-14T02:18:13.996Z,392
2022-12-14T02:19:14.356Z,398
2022-12-14T02:21:14.349Z,400
2022-12-14T02:22:14.263Z,394
2022-12-14T02:23:13.700Z,384
2022-12-14T02:24:13.545Z,390
2022-12-14T02:25:13.842Z,375
2022-12-14T02:26:14.130Z,387
2022-12-14T02:27:14.046Z,400
2022-12-14T02:28:13.315Z,404
2022-12-14T02:29:13.983Z,393
2022-12-14T02:30:14.383Z,394
2022-12-14T02:31:13.987Z,401
2022-12-14T02:32:13.784Z,400
2022-12-14T02:33:13.448Z,394
2022-12-14T02:34:14.844Z,400
2022-12-14T02:35:14.372Z,405
2022-12-14T02:36:14.025Z,402
2022-12-14T02:37:13.659Z,398
2022-12-14T02:38:15.178Z,397
2022-12-14T02:39:14.556Z,399
2022-12-14T02:40:14.884Z,401
2022-12-14T02:41:13.802Z,400
2022-12-14T02:42:13.742Z,385
2022-12-14T02:43:13.917Z,400
2022-12-14T02:44:14.723Z,406
2022-12-14T02:45:14.998Z,400
2022-12-14T02:46:13.387Z,385
2022-12-14T02:47:13.940Z,394
2022-12-14T02:48:14.037Z,414
2022-12-14T02:49:13.886Z,391
2022-12-14T02:51:13.670Z,396
2022-12-14T02:52:14.637Z,394
2022-12-14T02:53:13.800Z,401
2022-12-14T02:54:14.388Z,399
2022-12-14T02:55:14.607Z,398
2022-12-14T02:56:14.269Z,392
2022-12-14T02:57:14.444Z,400
2022-12-14T02:58:14.006Z,392
2022-12-14T02:59:14.020Z,394
2022-12-14T03:00:14.760Z,397
2022-12-14T03:01:14.841Z,400
2022-12-14T03:02:13.847Z,404
2022-12-14T03:03:13.876Z,400
2022-12-14T03:04:14.377Z,398
2022-12-14T03:05:15.160Z,408
2022-12-14T03:06:14.277Z,414
2022-12-14T03:07:13.840Z,405
2022-12-14T03:08:13.924Z,404
2022-12-14T03:09:13.882Z,406
2022-12-14T03:10:13.868Z,414
2022-12-14T03:11:13.781Z,411
2022-12-14T03:12:14.478Z,428
2022-12-14T03:13:14.436Z,413
2022-12-14T03:14:14.714Z,416
2022-12-14T03:15:14.173Z,421
2022-12-14T03:16:13.979Z,407
2022-12-14T03:17:19.220Z,399
2022-12-14T03:18:13.205Z,401
2022-12-14T03:19:13.957Z,406
2022-12-14T03:20:13.855Z,404
2022-12-14T03:21:13.916Z,400
2022-12-14T03:22:13.415Z,399
2022-12-14T03:23:14.529Z,408
2022-12-14T03:24:14.748Z,404
2022-12-14T03:25:13.746Z,408
2022-12-14T03:27:14.206Z,402
2022-12-14T03:28:13.537Z,405
2022-12-14T03:29:14.825Z,402
2022-12-14T03:30:14.971Z,406
2022-12-14T03:31:14.293Z,407
2022-12-14T03:32:14.333Z,414
2022-12-14T03:33:14.518Z,419
2022-12-14T03:34:13.832Z,407
2022-12-14T03:35:14.359Z,422
2022-12-14T03:36:13.903Z,411
2022-12-14T03:37:14.109Z,401
2022-12-14T03:38:14.123Z,402
2022-12-14T03:39:13.697Z,399
2022-12-14T03:40:14.596Z,402
2022-12-14T03:41:13.408Z,406
2022-12-14T03:42:13.971Z,401
2022-12-14T03:43:13.681Z,405
2022-12-14T03:44:14.635Z,402
2022-12-14T03:45:14.381Z,401
2022-12-14T03:46:14.726Z,394
2022-12-14T03:47:13.566Z,407
2022-12-14T03:48:13.733Z,410
2022-12-14T03:49:13.940Z,405
2022-12-14T03:50:13.783Z,402
2022-12-14T03:51:14.005Z,403
2022-12-14T03:52:13.743Z,396
2022-12-14T03:53:14.389Z,394
2022-12-14T03:54:14.643Z,407
2022-12-14T03:55:13.564Z,408
2022-12-14T03:56:13.771Z,398
2022-12-14T03:57:13.909Z,396
2022-12-14T03:58:13.910Z,402
2022-12-14T03:59:14.264Z,411
2022-12-14T04:00:14.931Z,399
2022-12-14T04:01:15.095Z,408
2022-12-14T04:02:14.803Z,412
2022-12-14T04:03:13.960Z,428
2022-12-14T04:04:14.495Z,415
2022-12-14T04:05:14.295Z,405
2022-12-14T04:06:13.923Z,417
2022-12-14T04:07:14.054Z,416
2022-12-14T04:08:13.782Z,407
2022-12-14T04:09:13.493Z,401
2022-12-14T04:10:14.008Z,399
2022-12-14T04:11:13.761Z,402
2022-12-14T04:12:13.727Z,409
2022-12-14T04:13:13.330Z,407
2022-12-14T04:14:13.989Z,398
2022-12-14T04:15:14.137Z,399
2022-12-14T04:16:14.473Z,396
2022-12-14T04:17:14.408Z,391
2022-12-14T04:18:14.356Z,398
2022-12-14T04:19:14.108Z,396
2022-12-14T04:20:14.205Z,394
2022-12-14T04:22:13.771Z,422
2022-12-14T04:23:13.625Z,417
2022-12-14T04:24:13.787Z,395
2022-12-14T04:25:33.128Z,412
2022-12-14T04:26:14.077Z,414
2022-12-14T04:27:33.073Z,411
2022-12-14T04:29:14.477Z,401
2022-12-14T04:30:15.150Z,403
2022-12-14T04:31:14.660Z,405
2022-12-14T04:32:14.227Z,391
2022-12-14T04:33:35.523Z,393
2022-12-14T04:34:14.003Z,395
2022-12-14T04:35:13.951Z,390
2022-12-14T04:36:13.478Z,393
2022-12-14T04:37:14.711Z,402
2022-12-14T04:38:14.580Z,403
2022-12-14T04:39:14.842Z,398
2022-12-14T04:40:13.916Z,395
2022-12-14T04:41:14.291Z,403
2022-12-14T04:42:14.716Z,406
2022-12-14T04:43:13.531Z,405
2022-12-14T04:44:14.542Z,419
2022-12-14T04:45:14.048Z,400
2022-12-14T04:46:14.388Z,403
2022-12-14T04:47:14.698Z,414
2022-12-14T04:48:13.869Z,412
2022-12-14T04:49:14.107Z,397
2022-12-14T04:50:14.103Z,399
2022-12-14T04:51:14.352Z,406
2022-12-14T04:52:13.885Z,410
2022-12-14T04:53:14.422Z,404
2022-12-14T04:54:13.892Z,419
2022-12-14T04:55:14.810Z,409
2022-12-14T04:56:13.950Z,407
2022-12-14T04:57:18.937Z,401
2022-12-14T04:58:14.679Z,395
2022-12-14T04:59:14.778Z,399
2022-12-14T05:00:14.489Z,406
2022-12-14T05:01:13.796Z,416
2022-12-14T05:02:14.230Z,417
2022-12-14T05:03:14.546Z,412
2022-12-14T05:04:13.558Z,425
2022-12-14T05:05:14.013Z,422
2022-12-14T05:06:13.827Z,406
2022-12-14T05:07:14.209Z,400
2022-12-14T05:08:14.099Z,398
2022-12-14T05:09:13.754Z,395
2022-12-14T05:10:14.016Z,416
2022-12-14T05:11:48.070Z,414
2022-12-14T05:12:13.662Z,411
2022-12-14T05:13:13.945Z,412
2022-12-14T05:14:14.324Z,408
2022-12-14T05:15:14.590Z,414
2022-12-14T05:16:13.764Z,410
2022-12-14T05:17:13.847Z,409
2022-12-14T05:18:14.219Z,420
2022-12-14T05:19:14.659Z,425
2022-12-14T05:20:14.059Z,420
2022-12-14T05:21:14.847Z,414
2022-12-14T05:22:14.141Z,399
2022-12-14T05:23:14.916Z,402
2022-12-14T05:24:14.410Z,399
2022-12-14T05:25:13.858Z,401
2022-12-14T05:26:13.896Z,408
2022-12-14T05:27:13.637Z,400
2022-12-14T05:28:14.501Z,393
2022-12-14T05:29:15.090Z,404
2022-12-14T05:30:14.763Z,392
2022-12-14T05:31:13.846Z,394
2022-12-14T05:32:13.932Z,401
2022-12-14T05:33:14.093Z,386
2022-12-14T05:34:13.935Z,383
2022-12-14T05:35:14.806Z,399
2022-12-14T05:36:13.801Z,403
2022-12-14T05:37:18.210Z,409
2022-12-14T05:38:14.270Z,404
2022-12-14T05:39:14.328Z,405
2022-12-14T05:40:15.124Z,406
2022-12-14T05:41:14.237Z,394
2022-12-14T05:42:13.976Z,397
2022-12-14T05:43:14.939Z,402
2022-12-14T05:44:15.052Z,401
2022-12-14T05:45:14.529Z,404
2022-12-14T05:46:14.455Z,411
2022-12-14T05:47:13.939Z,410
2022-12-14T05:48:14.509Z,412
2022-12-14T05:49:14.449Z,400
2022-12-14T05:50:14.037Z,403
2022-12-14T05:51:13.862Z,401
2022-12-14T05:52:13.665Z,397
2022-12-14T05:53:14.317Z,403
2022-12-14T05:55:14.440Z,402
2022-12-14T05:56:14.176Z,409
2022-12-14T05:57:13.913Z,414
2022-12-14T05:58:14.238Z,382
2022-12-14T05:59:14.283Z,389
2022-12-14T06:00:15.690Z,391
2022-12-14T06:01:19.127Z,390
2022-12-14T06:02:14.536Z,398
2022-12-14T06:03:14.043Z,399
2022-12-14T06:04:14.701Z,398
2022-12-14T06:05:15.163Z,393
2022-12-14T06:06:14.109Z,397
2022-12-14T06:07:14.637Z,393
2022-12-14T06:08:14.502Z,394
2022-12-14T06:09:13.701Z,393
2022-12-14T06:10:14.860Z,401
2022-12-14T06:11:13.855Z,402
2022-12-14T06:12:13.495Z,400
2022-12-14T06:13:14.352Z,390
2022-12-14T06:14:14.694Z,398
2022-12-14T06:15:14.161Z,391
2022-12-14T06:16:14.189Z,392
2022-12-14T06:17:14.346Z,385
2022-12-14T06:18:14.511Z,390
2022-12-14T06:19:13.420Z,385
2022-12-14T06:20:14.097Z,430
2022-12-14T06:21:14.954Z,421
2022-12-14T06:22:14.943Z,376
2022-12-14T06:23:15.676Z,384
2022-12-14T06:24:15.208Z,394
2022-12-14T06:25:13.952Z,403
2022-12-14T06:26:14.590Z,397
2022-12-14T06:27:13.643Z,385
2022-12-14T06:28:13.813Z,389
2022-12-14T06:29:14.036Z,393
2022-12-14T06:30:14.505Z,399
2022-12-14T06:31:14.518Z,396
2022-12-14T06:32:14.417Z,400
2022-12-14T06:33:14.133Z,397
2022-12-14T06:34:14.476Z,398
2022-12-14T06:35:14.737Z,393
2022-12-14T06:36:14.045Z,394
2022-12-14T06:37:13.869Z,400
2022-12-14T06:38:13.791Z,408
2022-12-14T06:39:13.941Z,412
2022-12-14T06:40:13.852Z,405
2022-12-14T06:41:14.051Z,404
2022-12-14T06:42:14.148Z,393
2022-12-14T06:43:14.441Z,375
2022-12-14T06:44:15.079Z,407
2022-12-14T06:45:14.165Z,408
2022-12-14T06:46:15.773Z,382
2022-12-14T06:47:14.116Z,392
2022-12-14T06:48:14.265Z,397
2022-12-14T06:49:14.386Z,398
2022-12-14T06:50:14.853Z,397
2022-12-14T06:51:13.923Z,395
2022-12-14T06:52:14.248Z,396
2022-12-14T06:53:13.948Z,409
2022-12-14T06:54:13.965Z,398
2022-12-14T06:55:14.832Z,403
2022-12-14T06:56:14.054Z,413
2022-12-14T06:57:14.113Z,409
2022-12-14T06:58:14.072Z,408
2022-12-14T06:59:13.889Z,409
2022-12-14T07:00:15.569Z,401
2022-12-14T07:01:15.243Z,405
2022-12-14T07:02:14.356Z,408
2022-12-14T07:03:14.260Z,404
2022-12-14T07:04:15.103Z,401
2022-12-14T07:05:14.343Z,396
2022-12-14T07:06:14.687Z,398
2022-12-14T07:07:13.895Z,379
2022-12-14T07:08:13.912Z,402
2022-12-14T07:09:14.043Z,400
2022-12-14T07:10:13.955Z,406
2022-12-14T07:11:13.589Z,408
2022-12-14T07:12:14.800Z,417
2022-12-14T07:13:13.807Z,412
2022-12-14T07:14:13.523Z,426
2022-12-14T07:15:14.776Z,427
2022-12-14T07:16:13.571Z,426
2022-12-14T07:17:14.074Z,428
2022-12-14T07:18:14.229Z,427
2022-12-14T07:19:15.037Z,438
2022-12-14T07:21:14.136Z,419
2022-12-14T07:22:14.421Z,414
2022-12-14T07:23:14.855Z,413
2022-12-14T07:24:14.873Z,411
2022-12-14T07:25:14.202Z,402
2022-12-14T07:26:14.351Z,404
2022-12-14T07:27:14.414Z,412
2022-12-14T07:28:14.234Z,422
2022-12-14T07:29:14.962Z,433
2022-12-14T07:30:14.553Z,432
2022-12-14T07:31:14.214Z,428
2022-12-14T07:32:15.101Z,436
2022-12-14T07:33:14.200Z,426
2022-12-14T07:34:14.163Z,433
2022-12-14T07:35:16.840Z,431
2022-12-14T07:36:14.146Z,436
2022-12-14T07:37:14.505Z,449
2022-12-14T07:38:14.597Z,447
2022-12-14T07:39:13.769Z,434
2022-12-14T07:40:14.276Z,426
2022-12-14T07:41:18.953Z,434
2022-12-14T07:42:13.849Z,441
2022-12-14T07:43:14.283Z,445
2022-12-14T07:44:14.937Z,436
2022-12-14T07:45:15.083Z,427
2022-12-14T07:46:13.949Z,417
2022-12-14T07:47:16.557Z,414
2022-12-14T07:48:14.223Z,409
2022-12-14T07:49:14.395Z,411
2022-12-14T07:50:13.990Z,416
2022-12-14T07:51:14.627Z,417
2022-12-14T07:52:14.813Z,419
2022-12-14T07:53:14.325Z,416
2022-12-14T07:54:13.752Z,400
2022-12-14T07:55:14.771Z,411
2022-12-14T07:56:14.160Z,408
2022-12-14T07:57:14.897Z,396
2022-12-14T07:58:14.245Z,401
2022-12-14T07:59:14.535Z,399
2022-12-14T08:00:15.152Z,413
2022-12-14T08:01:15.465Z,414
2022-12-14T08:02:13.884Z,419
2022-12-14T08:03:14.259Z,411
2022-12-14T08:04:14.528Z,409
2022-12-14T08:05:13.839Z,410
2022-12-14T08:06:14.032Z,406
2022-12-14T08:07:14.964Z,411
2022-12-14T08:08:14.472Z,418
2022-12-14T08:09:14.217Z,407
2022-12-14T08:10:15.043Z,415
2022-12-14T08:11:13.953Z,414
2022-12-14T08:12:14.028Z,416
2022-12-14T08:13:14.966Z,413
2022-12-14T08:14:14.871Z,420
2022-12-14T08:15:14.804Z,411
2022-12-14T08:16:14.236Z,412
2022-12-14T08:17:14.512Z,405
2022-12-14T08:18:14.115Z,415
2022-12-14T08:19:14.767Z,404
2022-12-14T08:20:14.757Z,401
2022-12-14T08:21:14.942Z,407
2022-12-14T08:22:14.734Z,413
2022-12-14T08:23:14.328Z,416
2022-12-14T08:24:15.035Z,429
2022-12-14T08:25:15.210Z,426
2022-12-14T08:26:14.625Z,428
2022-12-14T08:27:14.144Z,409
2022-12-14T08:28:14.956Z,398
2022-12-14T08:29:14.386Z,396
2022-12-14T08:30:14.921Z,390
2022-12-14T08:31:14.314Z,395
2022-12-14T08:32:14.301Z,411
2022-12-14T08:33:15.097Z,401
2022-12-14T08:34:14.657Z,398
2022-12-14T08:35:14.627Z,406
2022-12-14T08:36:14.796Z,411
2022-12-14T08:37:13.835Z,416
2022-12-14T08:38:15.227Z,417
2022-12-14T08:39:14.302Z,410
2022-12-14T08:40:15.113Z,408
2022-12-14T08:41:14.502Z,407
2022-12-14T08:42:14.435Z,416
2022-12-14T08:43:14.863Z,388
2022-12-14T08:44:14.680Z,406
2022-12-14T08:45:15.420Z,410
2022-12-14T08:46:14.922Z,403
2022-12-14T08:47:14.763Z,398
2022-12-14T08:48:15.016Z,411
2022-12-14T08:49:22.153Z,417
2022-12-14T08:50:15.362Z,418
2022-12-14T08:51:15.316Z,417
2022-12-14T08:52:14.266Z,418
2022-12-14T08:54:14.453Z,409
2022-12-14T08:55:14.015Z,408
2022-12-14T08:56:13.679Z,419
2022-12-14T08:57:14.120Z,426
2022-12-14T08:58:14.722Z,418
2022-12-14T08:59:30.234Z,412
2022-12-14T09:00:15.182Z,416
2022-12-14T09:01:14.476Z,406
2022-12-14T09:02:14.803Z,403
2022-12-14T09:03:15.699Z,407
2022-12-14T09:04:14.827Z,402
2022-12-14T09:05:14.996Z,396
2022-12-14T09:06:14.893Z,405
2022-12-14T09:07:14.772Z,403
2022-12-14T09:08:14.592Z,412
2022-12-14T09:09:16.704Z,414
2022-12-14T09:10:14.980Z,408
2022-12-14T09:11:15.084Z,400
2022-12-14T09:12:14.847Z,407
2022-12-14T09:13:14.082Z,416
2022-12-14T09:14:15.373Z,420
2022-12-14T09:15:14.534Z,419
2022-12-14T09:16:14.336Z,414
2022-12-14T09:17:14.570Z,408
2022-12-14T09:18:14.374Z,406
2022-12-14T09:19:14.357Z,408
2022-12-14T09:21:15.168Z,400
2022-12-14T09:22:14.798Z,413
2022-12-14T09:23:14.435Z,422
2022-12-14T09:24:15.338Z,425
2022-12-14T09:25:14.679Z,430
2022-12-14T09:26:14.442Z,424
2022-12-14T09:27:14.083Z,417
2022-12-14T09:28:14.803Z,415
2022-12-14T09:30:14.249Z,404
2022-12-14T09:31:15.386Z,413
2022-12-14T09:32:14.072Z,402
2022-12-14T09:33:14.748Z,389
2022-12-14T09:34:14.363Z,388
2022-12-14T09:35:14.435Z,392
2022-12-14T09:36:14.609Z,406
2022-12-14T09:37:14.933Z,402
2022-12-14T09:38:15.127Z,403
2022-12-14T09:40:15.007Z,396
2022-12-14T09:41:14.481Z,389
2022-12-14T09:42:14.380Z,393
2022-12-14T09:43:15.798Z,404
2022-12-14T09:44:18.480Z,405
2022-12-14T09:45:14.942Z,406
2022-12-14T09:46:13.566Z,405
2022-12-14T09:48:14.617Z,413
2022-12-14T09:49:13.657Z,425
2022-12-14T09:50:14.261Z,422
2022-12-14T09:52:14.043Z,410
2022-12-14T09:53:14.286Z,390
2022-12-14T09:54:13.998Z,391
2022-12-14T09:55:15.531Z,397
2022-12-14T09:56:15.260Z,393
2022-12-14T09:57:15.831Z,401
2022-12-14T09:59:15.376Z,404
2022-12-14T10:00:15.506Z,414
2022-12-14T10:01:15.570Z,410
2022-12-14T10:03:14.683Z,411
2022-12-14T10:04:14.769Z,408
2022-12-14T10:05:15.811Z,401
2022-12-14T10:06:15.567Z,411
2022-12-14T10:07:15.574Z,414
2022-12-14T10:08:14.980Z,411
2022-12-14T10:09:15.491Z,406
2022-12-14T10:10:15.203Z,418
2022-12-14T10:11:15.208Z,412
2022-12-14T10:12:15.100Z,410
2022-12-14T10:13:14.472Z,419
2022-12-14T10:14:15.814Z,412
2022-12-14T10:15:15.415Z,422
2022-12-14T10:16:14.740Z,411
2022-12-14T10:17:15.386Z,388
2022-12-14T10:18:34.042Z,382
2022-12-14T10:19:14.705Z,385
2022-12-14T10:20:14.962Z,394
2022-12-14T10:21:15.280Z,399
2022-12-14T10:22:15.715Z,419
2022-12-14T10:23:20.987Z,432
2022-12-14T10:24:15.935Z,431
2022-12-14T10:25:15.352Z,424
2022-12-14T10:26:15.694Z,417
2022-12-14T10:27:14.724Z,411
2022-12-14T10:28:15.012Z,406
2022-12-14T10:29:15.032Z,407
2022-12-14T10:30:16.029Z,404
2022-12-14T10:31:15.453Z,393
2022-12-14T10:32:14.744Z,389
2022-12-14T10:33:15.399Z,388
2022-12-14T10:34:15.424Z,389
2022-12-14T10:35:15.583Z,390
2022-12-14T10:36:14.273Z,399
2022-12-14T10:37:14.245Z,401
2022-12-14T10:38:14.209Z,408
2022-12-14T10:39:14.090Z,413
2022-12-14T10:40:22.070Z,394
2022-12-14T10:41:14.940Z,400
2022-12-14T10:42:14.767Z,413
2022-12-14T10:43:15.538Z,419
2022-12-14T10:44:15.266Z,408
2022-12-14T10:45:39.720Z,415
2022-12-14T10:46:14.858Z,410
2022-12-14T10:47:13.934Z,396
2022-12-14T10:48:15.131Z,382
2022-12-14T10:49:15.738Z,375
2022-12-14T10:50:15.859Z,379
2022-12-14T10:51:15.152Z,381
2022-12-14T10:52:14.701Z,383
2022-12-14T10:53:14.322Z,390
2022-12-14T10:54:14.357Z,389
2022-12-14T10:55:14.873Z,384
2022-12-14T10:56:15.702Z,386
2022-12-14T10:57:14.295Z,385
2022-12-14T10:58:14.877Z,379
2022-12-14T10:59:14.863Z,386
2022-12-14T11:00:23.046Z,382
2022-12-14T11:01:16.061Z,373
2022-12-14T11:02:14.754Z,411
2022-12-14T11:03:14.834Z,391
2022-12-14T11:04:16.031Z,392
2022-12-14T11:05:15.271Z,403
2022-12-14T11:06:14.600Z,390
2022-12-14T11:07:14.972Z,382
2022-12-14T11:08:15.609Z,380
2022-12-14T11:09:15.335Z,390
2022-12-14T11:10:20.169Z,395
2022-12-14T11:11:18.888Z,403
2022-12-14T11:12:14.975Z,387
2022-12-14T11:13:15.330Z,377
2022-12-14T11:14:15.354Z,378
2022-12-14T11:15:15.004Z,386
2022-12-14T11:16:15.083Z,385
2022-12-14T11:17:15.608Z,378
2022-12-14T11:18:16.000Z,382
2022-12-14T11:19:13.954Z,385
2022-12-14T11:20:14.206Z,393
2022-12-14T11:21:16.732Z,389
2022-12-14T11:22:21.986Z,388
2022-12-14T11:23:14.260Z,386
2022-12-14T11:24:15.785Z,392
2022-12-14T11:25:15.916Z,405
2022-12-14T11:27:14.833Z,399
2022-12-14T11:28:14.971Z,396
2022-12-14T11:29:15.187Z,388
2022-12-14T11:30:15.793Z,382
2022-12-14T11:31:14.943Z,390
2022-12-14T11:32:14.927Z,395
2022-12-14T11:33:14.085Z,401
2022-12-14T11:34:19.066Z,400
2022-12-14T11:35:14.997Z,396
2022-12-14T11:37:14.474Z,392
2022-12-14T11:38:14.308Z,408
2022-12-14T11:39:14.716Z,406
2022-12-14T11:40:14.568Z,396
2022-12-14T11:41:14.316Z,391
2022-12-14T11:42:14.146Z,390
2022-12-14T11:43:14.456Z,385
2022-12-14T11:44:15.625Z,389
2022-12-14T11:45:15.206Z,392
2022-12-14T11:47:15.109Z,390
2022-12-14T11:48:15.058Z,398
2022-12-14T11:49:15.795Z,378
2022-12-14T11:50:15.033Z,382
2022-12-14T11:51:14.584Z,393
2022-12-14T11:52:14.952Z,392
2022-12-14T11:53:14.518Z,387
2022-12-14T11:54:15.498Z,390
2022-12-14T11:55:17.289Z,395
2022-12-14T11:56:14.922Z,389
2022-12-14T11:57:15.858Z,382
2022-12-14T11:58:14.728Z,390
2022-12-14T11:59:14.626Z,387
2022-12-14T12:00:15.816Z,394
2022-12-14T12:01:15.097Z,398
2022-12-14T12:02:15.629Z,388
2022-12-14T12:03:15.161Z,393
2022-12-14T12:04:15.951Z,401
2022-12-14T12:05:15.220Z,396
2022-12-14T12:06:13.963Z,400
2022-12-14T12:07:15.544Z,403
2022-12-14T12:08:15.219Z,389
2022-12-14T12:09:14.584Z,387
2022-12-14T12:10:15.055Z,395
2022-12-14T12:11:14.319Z,413
2022-12-14T12:12:15.104Z,390
2022-12-14T12:13:15.054Z,388
2022-12-14T12:14:14.209Z,384
2022-12-14T12:15:14.445Z,394
2022-12-14T12:16:13.805Z,392
2022-12-14T12:17:14.324Z,395
2022-12-14T12:19:14.237Z,387
2022-12-14T12:25:26.775Z,400
2022-12-14T12:26:14.544Z,399
2022-12-14T12:27:14.651Z,390
2022-12-14T12:28:13.503Z,385
2022-12-14T12:29:14.156Z,395
2022-12-14T12:30:15.046Z,413
2022-12-14T12:31:14.961Z,405
2022-12-14T12:32:13.731Z,401
2022-12-14T12:33:13.895Z,413
2022-12-14T12:34:14.730Z,419
2022-12-14T12:35:14.850Z,400
2022-12-14T12:37:26.445Z,398
2022-12-14T12:38:14.751Z,388
2022-12-14T12:39:14.967Z,405
2022-12-14T12:41:15.227Z,397
2022-12-14T12:42:14.388Z,392
2022-12-14T12:43:14.696Z,388
2022-12-14T12:44:15.724Z,390
2022-12-14T12:45:15.040Z,395
2022-12-14T12:46:14.455Z,397
2022-12-14T12:47:26.734Z,386
2022-12-14T12:48:14.872Z,395
2022-12-14T12:49:13.831Z,397
2022-12-14T12:50:14.708Z,396
2022-12-14T12:51:13.936Z,391
2022-12-14T12:52:14.637Z,397
2022-12-14T12:53:15.108Z,396
2022-12-14T12:54:14.794Z,391
2022-12-14T12:55:14.196Z,384
2022-12-14T12:56:15.568Z,397
2022-12-14T12:57:14.316Z,392
2022-12-14T12:58:14.535Z,412
2022-12-14T12:59:14.110Z,419
2022-12-14T13:00:15.907Z,413
2022-12-14T13:01:15.578Z,402
2022-12-14T13:02:14.567Z,407
2022-12-14T13:03:15.724Z,412
2022-12-14T13:04:15.331Z,415
2022-12-14T13:06:15.104Z,402
2022-12-14T13:07:14.800Z,401
2022-12-14T13:08:15.420Z,408
2022-12-14T13:09:15.243Z,400
2022-12-14T13:10:14.781Z,407
2022-12-14T13:11:26.054Z,398
2022-12-14T13:12:14.407Z,389
2022-12-14T13:13:14.241Z,395
2022-12-14T13:14:14.842Z,396
2022-12-14T13:15:14.642Z,400
2022-12-14T13:16:14.026Z,385
2022-12-14T13:17:13.976Z,386
2022-12-14T13:18:33.896Z,392
2022-12-14T13:19:48.350Z,399
2022-12-14T13:21:14.977Z,400
2022-12-14T13:22:15.104Z,408
2022-12-14T13:23:43.491Z,391
2022-12-14T13:24:14.248Z,403
2022-12-14T13:25:14.729Z,411
2022-12-14T13:26:28.184Z,404
2022-12-14T13:27:17.659Z,398
2022-12-14T13:28:15.139Z,404
2022-12-14T13:29:15.030Z,397
2022-12-14T13:30:15.308Z,399
2022-12-14T13:31:14.505Z,407
2022-12-14T13:32:14.427Z,406
2022-12-14T13:33:14.324Z,399
2022-12-14T13:34:14.293Z,410
2022-12-14T13:35:14.669Z,418
2022-12-14T13:36:14.630Z,404
2022-12-14T13:37:21.811Z,399
2022-12-14T13:38:14.642Z,390
2022-12-14T13:39:14.546Z,392
2022-12-14T13:40:14.604Z,407
2022-12-14T13:41:14.397Z,403
2022-12-14T13:42:14.445Z,394
2022-12-14T13:43:14.588Z,387
2022-12-14T13:44:14.466Z,388
2022-12-14T13:45:14.253Z,399
2022-12-14T13:46:14.652Z,406
2022-12-14T13:47:14.978Z,393
2022-12-14T13:49:14.225Z,398
2022-12-14T13:50:39.827Z,408
2022-12-14T13:51:14.331Z,407
2022-12-14T13:52:14.702Z,412
2022-12-14T13:53:14.249Z,400
2022-12-14T13:54:14.077Z,397
2022-12-14T13:55:15.128Z,399
2022-12-14T13:56:14.853Z,391
2022-12-14T13:57:15.142Z,404
2022-12-14T13:58:14.377Z,413
2022-12-14T13:59:33.808Z,400
2022-12-14T14:00:15.767Z,387
2022-12-14T14:01:34.846Z,395
2022-12-14T14:02:19.780Z,399
2022-12-14T14:03:14.627Z,397
2022-12-14T14:04:15.885Z,388
2022-12-14T14:05:14.565Z,386
2022-12-14T14:06:14.120Z,393
2022-12-14T14:07:14.863Z,403
2022-12-14T14:08:14.086Z,410
2022-12-14T14:09:14.237Z,395
2022-12-14T14:10:14.733Z,397
2022-12-14T14:11:36.405Z,393
2022-12-14T14:12:14.643Z,392
2022-12-14T14:13:14.361Z,403
2022-12-14T14:15:36.055Z,397
2022-12-14T14:16:28.569Z,396
2022-12-14T14:17:14.515Z,397
2022-12-14T14:18:14.505Z,386
2022-12-14T14:19:14.674Z,396
2022-12-14T14:20:14.902Z,397
2022-12-14T14:21:15.248Z,393
2022-12-14T14:22:22.767Z,384
2022-12-14T14:23:14.706Z,389
2022-12-14T14:24:15.147Z,393
2022-12-14T14:25:14.591Z,388